Sonangol Etosha — C6YM5 — position and weather

sailwx.info

Track history (hours):
 
Tides and Currents Weather Stations Pressure Air Temp Water Temp Dewpoint Dewpoint Depression Visibility Wind Speed Wind Dir Waves Ship Positions

Sonangol Etosha

Last reported at 2018-Jun-23 04:00 UTC. Time now 2018-Jun-24 18:52 UTC.
Position S 26°36' E 045°42'.

Length 291 m; draft 9.4 m.

Type: Ship (hazmat cat B). MMSI: 5631106.

Wind from 130 at 10 knots

Barometer 1021.0 mb
Air temperature 21.0 ° C
Visibility: greater than 10.8 NM
Dewpoint 12.1 ° C
Water temperature 23.0 ° C

Date/timePositionNaut miles runAvg speedWind from/ knotsBaromVisibWave heightAir tempDewpointWater temp
2018-Jun-23 04:00S 26°36' E 045°42'   130 / 101021.010.8 21.012.123.0
2018-Jun-19 17:53S 34°47' E 018°25'717.9
2018-Jun-19 17:28S 34°43' E 018°18'1217.5
2018-Jun-19 16:46S 34°35' E 018°07'617.6
2018-Jun-19 16:26S 34°30' E 018°03'1017.7
2018-Jun-19 15:53S 34°23' E 017°55'717.4
2018-Jun-19 15:30S 34°18' E 017°49'917.8
2018-Jun-19 15:00S 34°11' E 017°43'917.9
2018-Jun-19 14:30S 34°04' E 017°37'56217.3
2018-Jun-18 06:00S 25°36' E 013°00'42917.9 200 / 61017.010.8 16.012.416.0
2018-Jun-17 06:00S 18°42' E 011°00'72016.8 190 / 241015.010.8 16.012.416.0
2018-Jun-15 11:12S 06°42' E 011°16'73 1.8
2018-Jun-13 18:03S 06°07' E 012°20'0 0.0
2018-Jun-13 18:01S 06°07' E 012°20'0 0.0
2018-Jun-13 17:07S 06°07' E 012°20'  
Track history (hours):
 
Tides and Currents Weather Stations Pressure Air Temp Water Temp Dewpoint Dewpoint Depression Visibility Wind Speed Wind Dir Waves Ship Positions

Sonangol Etosha

Last reported at 2018-Jun-23 04:00 UTC. Time now 2018-Jun-24 18:52 UTC.
Position S 26°36' E 045°42'.

Length 291 m; draft 9.4 m.

Type: Ship (hazmat cat B). MMSI: 5631106.

Wind from 130 at 10 knots

Barometer 1021.0 mb
Air temperature 21.0 ° C
Visibility: greater than 10.8 NM
Dewpoint 12.1 ° C
Water temperature 23.0 ° C

Date/timePositionNaut miles runAvg speedWind from/ knotsBaromVisibWave heightAir tempDewpointWater temp
2018-Jun-23 04:00S 26°36' E 045°42'   130 / 101021.010.8 21.012.123.0
2018-Jun-19 17:53S 34°47' E 018°25'717.9
2018-Jun-19 17:28S 34°43' E 018°18'1217.5
2018-Jun-19 16:46S 34°35' E 018°07'617.6
2018-Jun-19 16:26S 34°30' E 018°03'1017.7
2018-Jun-19 15:53S 34°23' E 017°55'717.4
2018-Jun-19 15:30S 34°18' E 017°49'917.8
2018-Jun-19 15:00S 34°11' E 017°43'917.9
2018-Jun-19 14:30S 34°04' E 017°37'56217.3
2018-Jun-18 06:00S 25°36' E 013°00'42917.9 200 / 61017.010.8 16.012.416.0
2018-Jun-17 06:00S 18°42' E 011°00'72016.8 190 / 241015.010.8 16.012.416.0
2018-Jun-15 11:12S 06°42' E 011°16'73 1.8
2018-Jun-13 18:03S 06°07' E 012°20'0 0.0
2018-Jun-13 18:01S 06°07' E 012°20'0 0.0
2018-Jun-13 17:07S 06°07' E 012°20'  

Dump ship's entire track history